Time;durP1;ratioP1;P1;durP2;ratioP2;P2;SDS_P1;SDS_P2;PMS_P1;PMS_P2;Temp;Humidity;BMP_temperature;BMP_pressure;BME280_temperature;BME280_humidity;BME280_pressure;Samples;Min_cycle;Max_cycle;Signal;HPM_P1;HPM_P2
2022/04/25 00:00:35;;;;;;;7.87;1.87;;;13.10;99.90;;;;;;5113486;28;20524;-53
2022/04/25 00:03:04;;;;;;;9.90;2.27;;;13.00;99.90;;;;;;5114090;28;20275;-55
2022/04/25 00:05:30;;;;;;;6.57;1.73;;;12.90;99.90;;;;;;5114532;28;20661;-58
2022/04/25 00:07:56;;;;;;;7.50;2.10;;;12.80;99.90;;;;;;5114292;28;20228;-57
2022/04/25 00:10:22;;;;;;;6.90;1.90;;;12.80;99.90;;;;;;5114236;28;20267;-55
2022/04/25 00:12:48;;;;;;;4.80;1.60;;;12.80;99.90;;;;;;5114077;28;20192;-55
2022/04/25 00:15:14;;;;;;;5.50;1.43;;;12.70;99.90;;;;;;5114488;27;20179;-54
2022/04/25 00:17:39;;;;;;;5.83;1.33;;;12.60;99.90;;;;;;5114082;28;20641;-53
2022/04/25 00:20:08;;;;;;;9.67;1.80;;;12.70;99.90;;;;;;5114207;28;20191;-58
2022/04/25 00:22:34;;;;;;;10.37;1.20;;;12.80;99.90;;;;;;5113677;28;20254;-55
2022/04/25 00:25:00;;;;;;;12.47;1.83;;;12.80;99.90;;;;;;5113993;28;20191;-53
2022/04/25 00:27:28;;;;;;;8.13;1.40;;;12.90;99.90;;;;;;5112810;28;20653;-55
2022/04/25 00:29:54;;;;;;;4.80;1.87;;;12.90;99.90;;;;;;5124904;27;20232;-55
2022/04/25 00:32:20;;;;;;;6.13;1.20;;;12.90;99.90;;;;;;5134677;27;20228;-55
2022/04/25 00:34:46;;;;;;;6.23;1.37;;;12.90;99.90;;;;;;5134347;27;20580;-55
2022/04/25 00:37:11;;;;;;;6.40;1.70;;;12.90;99.90;;;;;;5133160;27;20175;-53
2022/04/25 00:39:37;;;;;;;8.53;1.67;;;12.90;99.90;;;;;;5134659;27;20240;-56
2022/04/25 00:42:03;;;;;;;7.87;2.40;;;12.80;99.90;;;;;;5134510;27;20599;-55
2022/04/25 00:44:29;;;;;;;9.17;2.60;;;12.70;99.90;;;;;;5134454;27;20180;-53
2022/04/25 00:46:56;;;;;;;4.37;1.47;;;12.70;99.90;;;;;;5132451;27;20276;-54
2022/04/25 00:49:23;;;;;;;6.13;1.90;;;12.60;99.90;;;;;;5134216;27;20658;-54
2022/04/25 00:51:51;;;;;;;3.07;1.63;;;12.50;99.90;;;;;;5133522;27;20253;-54
2022/04/25 00:54:20;;;;;;;6.37;1.60;;;12.50;99.90;;;;;;5133814;27;20192;-57
2022/04/25 00:56:48;;;;;;;6.00;1.70;;;12.50;99.90;;;;;;5134054;27;20639;-54
2022/04/25 00:59:16;;;;;;;9.70;2.00;;;12.40;99.90;;;;;;5134087;27;20273;-54
2022/04/25 01:01:43;;;;;;;4.10;1.33;;;12.40;99.90;;;;;;5133907;27;20271;-58
2022/04/25 01:04:09;;;;;;;4.40;1.27;;;12.30;99.90;;;;;;5132680;27;20186;-56
2022/04/25 01:06:34;;;;;;;5.40;1.50;;;12.20;99.90;;;;;;5132425;27;20546;-55
2022/04/25 01:09:00;;;;;;;8.70;1.37;;;12.20;99.90;;;;;;5133368;27;20190;-55
2022/04/25 01:11:26;;;;;;;4.03;1.43;;;12.10;99.90;;;;;;5132389;27;20653;-55
2022/04/25 01:13:52;;;;;;;6.23;1.60;;;12.00;99.90;;;;;;5133587;27;20723;-54
2022/04/25 01:16:17;;;;;;;7.57;1.33;;;11.90;99.90;;;;;;5133672;27;20189;-54
2022/04/25 01:18:43;;;;;;;3.67;1.37;;;11.80;99.90;;;;;;5133580;27;20248;-55
2022/04/25 01:21:12;;;;;;;5.27;1.60;;;11.80;99.90;;;;;;5131759;27;20567;-54
2022/04/25 01:29:08;;;;;;;4.67;1.40;;;11.90;99.90;;;;;;5128998;27;20244;-56
2022/04/25 01:31:34;;;;;;;7.50;1.30;;;12.00;99.90;;;;;;5113597;28;20683;-53
2022/04/25 01:34:00;;;;;;;4.63;1.50;;;12.10;99.90;;;;;;5112851;28;20274;-54
2022/04/25 01:36:26;;;;;;;6.70;1.33;;;12.20;99.90;;;;;;5112919;28;20180;-54
2022/04/25 01:38:52;;;;;;;6.20;1.63;;;12.30;99.90;;;;;;5112645;28;20187;-54
2022/04/25 01:41:18;;;;;;;6.63;1.33;;;12.30;99.90;;;;;;5112573;28;20712;-55
2022/04/25 01:43:44;;;;;;;10.37;1.97;;;12.40;99.90;;;;;;5112406;28;20282;-56
2022/04/25 01:46:09;;;;;;;7.50;1.60;;;12.50;99.90;;;;;;5112544;28;20672;-55
2022/04/25 01:48:35;;;;;;;10.90;1.80;;;12.60;99.90;;;;;;5112446;28;20231;-55
2022/04/25 01:51:02;;;;;;;6.33;1.70;;;12.70;99.90;;;;;;5112399;28;20177;-54
2022/04/25 01:53:29;;;;;;;5.23;1.97;;;12.70;99.90;;;;;;5112797;28;20192;-56
2022/04/25 01:55:55;;;;;;;9.80;2.40;;;12.70;99.90;;;;;;5112165;28;20686;-55
2022/04/25 01:58:21;;;;;;;4.03;1.83;;;12.70;99.90;;;;;;5112551;28;20176;-54
2022/04/25 02:00:47;;;;;;;6.13;2.43;;;12.60;99.90;;;;;;5112051;28;20599;-53
2022/04/25 02:03:13;;;;;;;12.17;2.40;;;12.60;99.90;;;;;;5112236;28;20180;-54
2022/04/25 02:05:39;;;;;;;6.00;2.03;;;12.60;99.90;;;;;;5112336;28;20186;-53
2022/04/25 02:08:05;;;;;;;8.07;1.80;;;12.50;99.90;;;;;;5112125;28;20176;-54
2022/04/25 02:10:31;;;;;;;6.00;2.10;;;12.50;99.90;;;;;;5112386;28;20549;-54
2022/04/25 02:12:57;;;;;;;13.00;2.27;;;12.50;99.90;;;;;;5111696;28;20200;-54
2022/04/25 02:15:23;;;;;;;5.47;1.63;;;12.60;99.90;;;;;;5112102;28;20183;-56
2022/04/25 02:17:49;;;;;;;5.77;1.70;;;12.60;99.90;;;;;;5111976;28;20280;-55
2022/04/25 02:20:14;;;;;;;11.37;1.93;;;12.70;99.90;;;;;;5112506;28;20676;-55
2022/04/25 02:22:40;;;;;;;11.63;1.77;;;12.90;99.90;;;;;;5110553;28;20276;-55
2022/04/25 02:25:07;;;;;;;7.93;1.57;;;13.00;99.90;;;;;;5112045;28;20261;-58
2022/04/25 02:27:33;;;;;;;6.83;2.10;;;13.00;99.90;;;;;;5111877;28;20255;-55
2022/04/25 02:29:59;;;;;;;6.03;1.47;;;13.20;99.90;;;;;;5123634;28;20676;-55
2022/04/25 02:32:27;;;;;;;8.13;1.53;;;13.40;99.90;;;;;;5132911;27;20195;-53
2022/04/25 02:34:56;;;;;;;13.10;2.33;;;13.60;99.90;;;;;;5135906;27;20709;-54
2022/04/25 02:37:23;;;;;;;8.10;1.47;;;13.80;99.90;;;;;;5136962;27;20168;-55
2022/04/25 02:39:49;;;;;;;11.00;1.73;;;13.80;99.90;;;;;;5135261;27;20198;-54
2022/04/25 02:42:15;;;;;;;9.90;2.23;;;13.80;99.90;;;;;;5136534;27;20187;-54
2022/04/25 02:44:41;;;;;;;10.87;1.67;;;13.80;99.90;;;;;;5135152;27;20180;-57
2022/04/25 02:47:07;;;;;;;10.83;1.60;;;13.70;99.90;;;;;;5135062;27;20184;-54
2022/04/25 02:49:32;;;;;;;8.47;1.07;;;13.70;99.90;;;;;;5135733;27;20180;-55
2022/04/25 02:51:58;;;;;;;6.73;1.00;;;13.60;99.90;;;;;;5136269;27;20218;-54
2022/04/25 02:54:24;;;;;;;11.53;1.83;;;13.60;99.90;;;;;;5136771;27;20266;-55
2022/04/25 02:56:50;;;;;;;15.30;1.43;;;13.60;99.90;;;;;;5136447;27;20637;-54
2022/04/25 02:59:15;;;;;;;10.43;1.73;;;13.60;99.90;;;;;;5136162;27;20175;-53
2022/04/25 03:01:42;;;;;;;14.33;2.00;;;13.60;99.90;;;;;;5136339;27;20211;-57
2022/04/25 03:04:08;;;;;;;13.80;1.43;;;13.60;99.90;;;;;;5136406;27;20186;-53
2022/04/25 03:06:34;;;;;;;13.90;1.57;;;13.60;99.90;;;;;;5136208;27;20263;-53
2022/04/25 03:09:00;;;;;;;11.73;1.90;;;13.70;99.90;;;;;;5135701;27;20247;-54
2022/04/25 03:11:26;;;;;;;8.80;2.13;;;13.80;99.90;;;;;;5136183;27;20208;-53
2022/04/25 03:13:55;;;;;;;10.47;1.37;;;13.80;99.90;;;;;;5135742;27;20663;-55
2022/04/25 03:16:21;;;;;;;13.50;1.80;;;13.90;99.90;;;;;;5136195;27;20211;-54
2022/04/25 03:18:48;;;;;;;16.70;1.83;;;14.00;99.90;;;;;;5135750;27;20689;-57
2022/04/25 03:21:14;;;;;;;13.87;2.00;;;14.10;99.90;;;;;;5135822;27;20187;-55
2022/04/25 03:23:40;;;;;;;9.03;1.97;;;14.10;99.90;;;;;;5135447;27;20235;-53
2022/04/25 03:26:06;;;;;;;11.77;2.27;;;14.10;99.90;;;;;;5135433;27;20190;-53
2022/04/25 03:28:32;;;;;;;11.70;2.73;;;14.00;99.90;;;;;;5135418;27;20624;-56
2022/04/25 03:30:58;;;;;;;16.60;2.20;;;14.00;99.90;;;;;;5115118;28;20180;-55
2022/04/25 03:33:24;;;;;;;21.17;3.03;;;13.90;99.90;;;;;;5115188;28;20207;-55
2022/04/25 03:35:51;;;;;;;10.70;1.53;;;13.90;99.90;;;;;;5114925;28;20192;-52
2022/04/25 03:38:18;;;;;;;10.33;2.30;;;13.90;99.90;;;;;;5115262;28;20259;-54
2022/04/25 03:40:44;;;;;;;18.20;3.17;;;13.90;99.90;;;;;;5115021;28;20191;-54
2022/04/25 03:43:10;;;;;;;13.47;1.70;;;13.80;99.90;;;;;;5114393;27;20210;-55
2022/04/25 03:45:37;;;;;;;13.07;2.20;;;13.70;99.90;;;;;;5114359;28;20169;-55
2022/04/25 03:48:04;;;;;;;15.70;2.10;;;13.70;99.90;;;;;;5114866;28;20261;-55
2022/04/25 03:50:31;;;;;;;14.23;2.30;;;13.70;99.90;;;;;;5115100;28;20189;-54
2022/04/25 03:52:57;;;;;;;9.73;2.10;;;13.70;99.90;;;;;;5114216;28;20306;-55
2022/04/25 03:58:07;;;;;;;12.17;1.90;;;13.60;99.90;;;;;;5114685;28;20219;-52
2022/04/25 04:00:35;;;;;;;14.23;2.13;;;13.60;99.90;;;;;;5114254;28;20216;-57
2022/04/25 04:03:00;;;;;;;16.40;2.93;;;13.60;99.90;;;;;;5114311;28;20481;-53
2022/04/25 04:05:27;;;;;;;15.77;2.30;;;13.60;99.90;;;;;;5114572;28;20180;-54
2022/04/25 04:07:53;;;;;;;15.20;2.63;;;13.50;99.90;;;;;;5114322;28;20177;-54
2022/04/25 04:10:20;;;;;;;17.43;2.43;;;13.60;99.90;;;;;;5114394;28;20194;-56
2022/04/25 04:12:47;;;;;;;13.57;2.47;;;13.60;99.90;;;;;;5114410;27;20208;-53
2022/04/25 04:15:13;;;;;;;8.03;2.10;;;13.60;99.90;;;;;;5113920;28;20177;-55
2022/04/25 04:17:40;;;;;;;13.60;2.03;;;13.60;99.90;;;;;;5114413;28;20637;-56
2022/04/25 04:20:08;;;;;;;12.80;2.40;;;13.50;99.90;;;;;;5114100;28;20176;-56
2022/04/25 04:22:34;;;;;;;13.83;3.00;;;13.50;99.90;;;;;;5113964;28;20739;-58
2022/04/25 04:25:01;;;;;;;13.60;2.80;;;13.50;99.90;;;;;;5113979;28;20208;-55
2022/04/25 04:27:31;;;;;;;8.90;2.00;;;13.50;99.90;;;;;;5114021;28;20180;-53
2022/04/25 04:30:06;;;;;;;16.30;2.67;;;13.50;99.90;;;;;;5125185;27;20187;-54
2022/04/25 04:32:32;;;;;;;10.63;2.27;;;13.50;99.90;;;;;;5134368;27;20207;-55
2022/04/25 04:34:59;;;;;;;13.93;2.37;;;13.50;99.90;;;;;;5134369;27;20176;-56
2022/04/25 04:37:25;;;;;;;12.87;2.37;;;13.60;99.90;;;;;;5134156;27;20584;-56
2022/04/25 04:40:28;;;;;;;12.43;2.43;;;13.60;99.90;;;;;;5134219;27;20202;-57
2022/04/25 04:42:41;;;;;;;13.60;1.90;;;13.70;99.90;;;;;;5134141;27;20194;-55
2022/04/25 04:45:07;;;;;;;16.17;2.20;;;13.70;99.90;;;;;;5133926;27;20176;-53
2022/04/25 04:47:37;;;;;;;15.23;2.23;;;13.70;99.90;;;;;;5134086;27;20194;-56
2022/04/25 04:50:04;;;;;;;19.87;2.57;;;13.70;99.90;;;;;;5133891;27;20188;-55
2022/04/25 04:52:30;;;;;;;12.80;2.73;;;13.70;99.90;;;;;;5134135;27;20238;-56
2022/04/25 05:22:03;;;;;;;16.43;3.03;;;13.40;99.90;;;;;;5085559;27;21027;-56
2022/04/25 05:24:29;;;;;;;20.87;2.90;;;14.10;99.90;;;;;;5071089;28;20270;-57
2022/04/25 05:26:55;;;;;;;20.37;2.70;;;14.30;99.90;;;;;;5088747;28;20325;-55
2022/04/25 05:29:21;;;;;;;11.67;2.47;;;14.30;99.90;;;;;;5083475;28;20204;-55
2022/04/25 05:31:49;;;;;;;18.97;2.80;;;14.50;99.90;;;;;;5068551;28;20210;-55
2022/04/25 05:34:15;;;;;;;11.63;2.43;;;14.60;99.90;;;;;;5069056;28;20178;-55
2022/04/25 05:36:41;;;;;;;15.37;2.93;;;14.70;99.90;;;;;;5068567;28;20174;-55
2022/04/25 05:39:08;;;;;;;12.77;2.40;;;14.90;99.90;;;;;;5083621;28;20192;-55
2022/04/25 05:41:36;;;;;;;10.27;2.40;;;15.20;99.90;;;;;;5089117;28;20185;-56
2022/04/25 05:44:03;;;;;;;13.90;2.43;;;15.30;99.70;;;;;;5088276;28;20641;-54
2022/04/25 05:46:29;;;;;;;11.67;2.93;;;15.40;99.40;;;;;;5087518;28;20181;-56
2022/04/25 05:54:24;;;;;;;20.27;2.60;;;15.70;99.40;;;;;;5087881;28;20200;-56
2022/04/25 05:56:49;;;;;;;23.40;3.30;;;15.70;99.40;;;;;;5067810;28;20178;-54
2022/04/25 05:59:15;;;;;;;10.40;2.30;;;15.70;99.60;;;;;;5068095;28;20200;-55
2022/04/25 06:01:41;;;;;;;14.70;2.27;;;15.70;99.80;;;;;;5067838;28;20192;-55
2022/04/25 06:04:07;;;;;;;12.87;2.20;;;15.60;99.80;;;;;;5067837;28;20631;-56
2022/04/25 06:06:32;;;;;;;13.23;2.20;;;15.60;99.70;;;;;;5067667;28;20185;-56
2022/04/25 06:08:58;;;;;;;14.00;2.40;;;15.60;99.40;;;;;;5068093;28;20192;-55
2022/04/25 06:11:24;;;;;;;22.40;2.43;;;15.60;99.60;;;;;;5067662;28;20689;-53
2022/04/25 06:13:50;;;;;;;8.60;2.20;;;15.60;99.50;;;;;;5067683;28;20704;-55
2022/04/25 06:16:17;;;;;;;16.03;2.00;;;15.50;99.70;;;;;;5066867;28;20579;-57
2022/04/25 06:18:42;;;;;;;15.27;2.23;;;15.50;99.40;;;;;;5067746;28;20174;-55
2022/04/25 06:21:08;;;;;;;11.80;1.97;;;15.50;99.50;;;;;;5076938;28;20239;-57
2022/04/25 06:23:35;;;;;;;14.90;2.67;;;15.60;99.40;;;;;;5073912;28;20193;-58
2022/04/25 06:26:00;;;;;;;12.20;1.60;;;15.60;99.30;;;;;;5074021;28;20500;-54
2022/04/25 06:28:26;;;;;;;15.03;2.10;;;15.60;99.50;;;;;;5072709;28;20188;-55
2022/04/25 06:30:52;;;;;;;14.30;2.47;;;15.50;99.50;;;;;;5093524;28;20312;-53
2022/04/25 06:33:18;;;;;;;13.87;2.27;;;15.50;99.30;;;;;;5092862;28;20182;-55
2022/04/25 06:35:45;;;;;;;16.53;2.30;;;15.60;99.50;;;;;;5094447;28;20192;-54
2022/04/25 06:38:11;;;;;;;10.67;1.83;;;15.60;99.50;;;;;;5093811;28;20539;-55
2022/04/25 06:40:37;;;;;;;14.90;2.00;;;15.60;99.50;;;;;;5092962;28;20176;-56
2022/04/25 06:43:04;;;;;;;15.37;2.50;;;15.60;99.60;;;;;;5093687;28;20630;-54
2022/04/25 06:45:30;;;;;;;16.17;2.20;;;15.70;99.60;;;;;;5094015;28;20177;-55
2022/04/25 06:47:56;;;;;;;11.63;1.90;;;15.80;98.70;;;;;;5093425;28;20189;-54
2022/04/25 06:50:23;;;;;;;12.17;1.90;;;15.90;98.70;;;;;;5093833;28;20223;-53
2022/04/25 06:52:48;;;;;;;15.20;2.40;;;16.00;98.00;;;;;;5093687;28;20192;-55
2022/04/25 06:55:14;;;;;;;11.40;2.50;;;16.00;97.80;;;;;;5093396;28;20250;-55
2022/04/25 06:57:40;;;;;;;16.30;2.97;;;16.20;98.10;;;;;;5093154;28;20199;-57
2022/04/25 07:00:08;;;;;;;13.63;2.93;;;16.30;97.80;;;;;;5093149;28;20200;-57
2022/04/25 07:02:35;;;;;;;15.03;2.60;;;16.50;97.20;;;;;;5093682;28;20196;-55
2022/04/25 07:05:01;;;;;;;20.30;3.13;;;16.60;97.50;;;;;;5093386;28;20181;-56
2022/04/25 07:07:27;;;;;;;11.03;1.90;;;16.70;96.90;;;;;;5093192;28;20184;-57
2022/04/25 07:09:52;;;;;;;17.87;2.87;;;16.60;96.30;;;;;;5093498;28;20300;-57
2022/04/25 07:12:18;;;;;;;11.17;2.20;;;16.70;96.70;;;;;;5092964;28;20552;-56
2022/04/25 07:14:44;;;;;;;10.50;2.43;;;16.80;96.80;;;;;;5092949;28;20181;-58
2022/04/25 07:17:09;;;;;;;15.80;2.80;;;16.90;96.60;;;;;;5092869;28;20177;-56
2022/04/25 07:19:39;;;;;;;15.17;2.23;;;16.90;96.50;;;;;;5092969;28;20677;-56
2022/04/25 07:30:19;;;;;;;16.07;2.73;;;17.20;96.40;;;;;;5077269;28;20220;-55
2022/04/25 07:32:45;;;;;;;15.33;2.43;;;17.30;95.90;;;;;;5071521;28;20182;-55
2022/04/25 07:35:11;;;;;;;18.10;2.57;;;17.20;95.60;;;;;;5071938;28;20177;-57
2022/04/25 07:37:37;;;;;;;12.73;2.40;;;17.30;95.40;;;;;;5072713;28;20239;-57
2022/04/25 07:40:06;;;;;;;19.50;3.03;;;17.30;95.60;;;;;;5072372;28;20523;-58
2022/04/25 07:42:33;;;;;;;13.10;2.90;;;17.40;95.40;;;;;;5072289;28;20661;-58
2022/04/25 07:44:59;;;;;;;19.87;3.00;;;17.50;95.30;;;;;;5070557;28;20204;-55
2022/04/25 07:47:24;;;;;;;18.30;3.07;;;17.60;94.60;;;;;;5071930;28;20213;-56
2022/04/25 07:49:50;;;;;;;18.67;3.60;;;17.70;94.70;;;;;;5071831;28;20300;-56
2022/04/25 07:52:17;;;;;;;16.40;4.00;;;17.70;94.50;;;;;;5071367;28;20186;-56
2022/04/25 07:54:43;;;;;;;13.70;4.27;;;17.80;94.60;;;;;;5072263;28;20338;-58
2022/04/25 07:57:09;;;;;;;14.30;3.00;;;17.90;94.30;;;;;;5071995;28;20185;-58
2022/04/25 07:59:35;;;;;;;11.43;2.77;;;18.10;94.00;;;;;;5071998;28;20185;-58
2022/04/25 08:02:01;;;;;;;18.10;3.10;;;18.30;93.60;;;;;;5072221;28;20205;-57
2022/04/25 08:04:28;;;;;;;15.57;2.97;;;18.50;93.40;;;;;;5071780;28;20639;-57
2022/04/25 08:06:53;;;;;;;25.47;3.67;;;18.60;93.20;;;;;;5071506;28;20538;-56
2022/04/25 08:09:19;;;;;;;20.10;2.42;;;18.50;93.20;;;;;;5071175;28;20182;-56
2022/04/25 08:11:45;;;;;;;21.37;3.80;;;18.50;93.10;;;;;;5070324;28;20192;-58
2022/04/25 08:19:39;;;;;;;18.33;2.87;;;18.70;92.90;;;;;;5071418;28;20542;-56
2022/04/25 08:22:09;;;;;;;22.33;3.15;;;18.80;92.50;;;;;;5071321;28;20178;-57
2022/04/25 08:24:36;;;;;;;25.40;3.25;;;18.90;92.70;;;;;;5071371;28;20185;-56
2022/04/25 08:27:05;;;;;;;32.83;3.97;;;19.00;92.30;;;;;;5071228;28;20247;-57
2022/04/25 08:29:34;;;;;;;14.65;2.55;;;19.10;92.20;;;;;;5079986;28;20184;-56
2022/04/25 08:32:00;;;;;;;20.60;3.47;;;19.30;91.80;;;;;;5091433;28;20177;-58
2022/04/25 08:34:26;;;;;;;20.60;2.78;;;19.40;91.50;;;;;;5091208;28;20511;-56
2022/04/25 08:36:52;;;;;;;26.05;3.15;;;19.40;91.20;;;;;;5091324;28;20183;-57
2022/04/25 08:39:18;;;;;;;19.23;3.13;;;19.30;91.10;;;;;;5091144;28;20169;-55
2022/04/25 08:41:53;;;;;;;24.08;4.53;;;19.20;91.00;;;;;;5091730;28;20197;-58
2022/04/25 08:44:20;;;;;;;21.00;3.15;;;19.30;91.40;;;;;;5090577;28;20168;-56
2022/04/25 08:46:50;;;;;;;25.25;3.25;;;19.30;91.00;;;;;;5091337;28;20257;-56
2022/04/25 08:49:19;;;;;;;18.88;3.58;;;19.30;90.40;;;;;;5090840;28;20645;-58
2022/04/25 08:51:47;;;;;;;19.67;3.20;;;19.40;90.60;;;;;;5090289;28;20203;-58
2022/04/25 08:54:14;;;;;;;12.35;2.70;;;19.50;90.80;;;;;;5091398;28;20176;-56
2022/04/25 08:56:41;;;;;;;19.23;3.15;;;19.60;90.40;;;;;;5091097;28;20184;-58
2022/04/25 08:59:09;;;;;;;22.92;5.47;;;19.70;90.30;;;;;;5091087;28;20242;-54
2022/04/25 09:01:37;;;;;;;27.77;3.97;;;19.80;90.30;;;;;;5091450;28;20237;-58
2022/04/25 09:04:04;;;;;;;18.05;2.75;;;19.90;90.30;;;;;;5090835;28;20272;-58
2022/04/25 09:06:30;;;;;;;19.33;3.88;;;20.10;90.10;;;;;;5090878;28;20204;-56
2022/04/25 09:08:56;;;;;;;20.13;3.03;;;20.10;89.40;;;;;;5091359;28;20177;-56
2022/04/25 09:14:11;;;;;;;21.55;3.40;;;20.20;89.00;;;;;;5091244;28;20184;-57
2022/04/25 09:16:39;;;;;;;19.35;3.60;;;20.30;87.90;;;;;;5091291;28;20177;-58
2022/04/25 09:19:04;;;;;;;17.40;3.30;;;20.40;87.40;;;;;;5091275;28;20188;-58
2022/04/25 09:21:31;;;;;;;20.83;3.22;;;20.50;86.90;;;;;;5091290;28;20225;-56
2022/04/25 09:23:58;;;;;;;17.33;3.13;;;20.60;87.00;;;;;;5091345;28;20226;-57
2022/04/25 09:26:28;;;;;;;20.50;3.42;;;20.50;87.40;;;;;;5091186;28;20184;-56
2022/04/25 09:28:56;;;;;;;17.45;3.92;;;20.50;86.00;;;;;;5087356;28;20190;-57
2022/04/25 09:31:25;;;;;;;26.50;3.08;;;20.40;85.90;;;;;;5070367;28;20766;-57
2022/04/25 09:33:51;;;;;;;15.13;3.45;;;20.10;86.80;;;;;;5070550;28;20235;-57
2022/04/25 09:36:17;;;;;;;19.73;3.58;;;20.40;89.60;;;;;;5069349;28;20196;-58
2022/04/25 09:38:45;;;;;;;25.73;4.35;;;20.70;89.80;;;;;;5052772;28;20173;-56
2022/04/25 09:41:16;;;;;;;20.13;3.67;;;20.90;90.00;;;;;;5070485;28;20185;-59
2022/04/25 09:43:44;;;;;;;18.05;3.08;;;21.30;88.90;;;;;;5070457;28;20210;-58
2022/04/25 09:46:14;;;;;;;14.65;3.67;;;21.40;87.60;;;;;;5070884;28;20206;-59
2022/04/25 09:48:59;;;;;;;16.20;3.35;;;21.50;88.10;;;;;;5070936;28;20180;-57
2022/04/25 09:51:25;;;;;;;26.63;3.67;;;21.80;86.80;;;;;;5070268;28;20222;-58
2022/04/25 09:53:53;;;;;;;12.23;2.90;;;21.80;86.40;;;;;;5070878;28;20189;-57
2022/04/25 09:56:20;;;;;;;21.08;3.55;;;22.00;86.20;;;;;;5070634;28;20166;-58
2022/04/25 09:59:09;;;;;;;19.98;3.60;;;22.10;83.60;;;;;;5074632;28;20235;-56
2022/04/25 10:01:39;;;;;;;18.23;4.20;;;22.20;83.60;;;;;;5074053;28;20243;-58
2022/04/25 10:04:26;;;;;;;16.67;2.88;;;22.40;82.50;;;;;;5074176;28;20178;-58
2022/04/25 10:06:54;;;;;;;20.63;4.15;;;22.20;82.20;;;;;;5073972;28;20262;-57
2022/04/25 10:09:23;;;;;;;14.80;3.10;;;21.90;82.50;;;;;;5074029;28;20261;-58
2022/04/25 10:11:49;;;;;;;21.35;4.75;;;22.20;81.80;;;;;;5074298;28;20269;-58
2022/04/25 10:14:16;;;;;;;16.45;2.90;;;22.40;81.60;;;;;;5073462;28;20627;-59
2022/04/25 10:16:43;;;;;;;15.40;2.83;;;22.30;81.40;;;;;;5074048;28;20269;-57
2022/04/25 10:19:09;;;;;;;16.08;3.38;;;22.10;81.40;;;;;;5073838;28;20182;-58
2022/04/25 10:21:36;;;;;;;24.98;4.00;;;22.10;81.00;;;;;;5073760;28;20373;-56
2022/04/25 10:24:02;;;;;;;24.15;3.95;;;21.90;80.50;;;;;;5074228;28;20182;-58
2022/04/25 10:26:30;;;;;;;23.10;3.60;;;22.00;81.10;;;;;;5073683;28;20194;-58
2022/04/25 10:29:00;;;;;;;18.85;3.22;;;22.10;79.40;;;;;;5077775;28;20177;-58
2022/04/25 10:31:38;;;;;;;24.10;4.40;;;22.20;79.20;;;;;;5093676;28;20689;-58
2022/04/25 10:34:05;;;;;;;24.88;4.65;;;22.30;80.00;;;;;;5094308;28;20185;-55
2022/04/25 10:36:37;;;;;;;23.73;3.55;;;22.40;80.60;;;;;;5094056;28;20280;-57
2022/04/25 10:39:16;;;;;;;18.20;4.38;;;22.60;80.70;;;;;;5094141;28;20179;-57
2022/04/25 10:44:37;;;;;;;17.67;4.28;;;22.60;80.10;;;;;;5093765;28;20192;-57
2022/04/25 10:47:05;;;;;;;31.42;4.53;;;22.90;78.60;;;;;;5094029;28;20181;-58
2022/04/25 10:49:32;;;;;;;20.77;3.85;;;23.40;76.90;;;;;;5093893;28;20181;-56
2022/04/25 10:51:59;;;;;;;31.38;4.35;;;23.30;76.60;;;;;;5093572;28;20177;-57
2022/04/25 10:54:28;;;;;;;21.92;3.78;;;23.40;76.10;;;;;;5092274;28;20185;-59
2022/04/25 10:57:14;;;;;;;20.05;3.53;;;23.40;75.00;;;;;;5093806;28;20189;-57
2022/04/25 10:59:40;;;;;;;32.88;5.90;;;23.70;75.60;;;;;;5093871;28;20641;-57
2022/04/25 11:02:35;;;;;;;29.70;4.65;;;23.80;74.20;;;;;;5093063;28;20188;-59
2022/04/25 11:05:18;;;;;;;17.20;4.30;;;23.50;73.50;;;;;;5079967;28;20197;-59
2022/04/25 11:07:44;;;;;;;25.35;4.25;;;23.40;73.80;;;;;;5093401;28;20191;-58
2022/04/25 11:10:42;;;;;;;22.13;4.18;;;23.20;74.40;;;;;;5092837;28;20216;-58
2022/04/25 11:13:08;;;;;;;22.13;3.92;;;23.10;75.90;;;;;;5092947;28;20627;-58
2022/04/25 11:15:48;;;;;;;22.23;3.53;;;23.10;75.30;;;;;;5092827;28;20195;-56
2022/04/25 11:18:38;;;;;;;20.50;3.58;;;22.70;75.10;;;;;;5092937;28;20208;-56
2022/04/25 11:21:08;;;;;;;15.52;3.33;;;22.80;75.80;;;;;;5092932;28;20308;-56
2022/04/25 11:23:35;;;;;;;15.60;3.58;;;22.60;76.80;;;;;;5093014;28;20255;-55
2022/04/25 11:26:05;;;;;;;22.13;3.92;;;22.30;78.30;;;;;;5093348;28;20173;-59
2022/04/25 11:28:33;;;;;;;9.90;3.15;;;21.70;79.50;;;;;;5092883;28;20633;-60
2022/04/25 11:31:13;;;;;;;18.40;3.55;;;21.50;80.30;;;;;;5073018;28;20232;-55
2022/04/25 11:33:43;;;;;;;17.20;3.63;;;21.30;81.00;;;;;;5072788;28;20255;-58
2022/04/25 11:36:11;;;;;;;13.13;3.05;;;21.10;81.80;;;;;;5072355;28;20180;-57
2022/04/25 11:41:31;;;;;;;15.82;4.10;;;20.50;84.70;;;;;;5072705;28;20511;-60
2022/04/25 11:43:57;;;;;;;20.38;4.50;;;20.30;87.00;;;;;;5072527;28;20181;-56
2022/04/25 11:46:25;;;;;;;15.40;4.03;;;20.00;88.70;;;;;;5072155;28;20213;-59
2022/04/25 11:48:52;;;;;;;25.38;4.65;;;19.80;89.30;;;;;;5071263;28;20190;-57
2022/04/25 11:51:25;;;;;;;19.63;3.83;;;19.70;90.30;;;;;;5072478;28;20687;-58
2022/04/25 11:54:04;;;;;;;16.05;4.07;;;19.60;90.60;;;;;;5072336;28;20252;-56
2022/04/25 11:56:32;;;;;;;28.80;5.35;;;19.40;90.90;;;;;;5072089;28;20260;-56
2022/04/25 11:58:59;;;;;;;21.65;4.13;;;19.20;91.60;;;;;;5071981;28;20185;-56
2022/04/25 12:01:42;;;;;;;28.50;4.73;;;19.00;91.90;;;;;;5072198;28;20185;-55
2022/04/25 12:04:28;;;;;;;26.83;4.97;;;18.80;92.60;;;;;;5072163;28;20256;-64
2022/04/25 12:07:02;;;;;;;20.20;3.87;;;18.50;94.00;;;;;;5071782;28;20185;-57
2022/04/25 12:18:19;;;;;;;18.07;4.20;;;16.70;99.90;;;;;;5072087;28;20208;-56
2022/04/25 12:21:03;;;;;;;19.20;4.30;;;16.50;99.90;;;;;;5070697;28;20236;-56
2022/04/25 12:23:42;;;;;;;14.57;4.00;;;16.20;99.90;;;;;;5071493;28;20218;-57
2022/04/25 12:26:22;;;;;;;14.23;3.97;;;15.80;99.90;;;;;;5071644;28;20272;-58
2022/04/25 12:28:53;;;;;;;15.60;4.03;;;15.50;99.90;;;;;;5073087;28;20246;-55
2022/04/25 12:31:19;;;;;;;18.53;3.90;;;15.10;99.90;;;;;;5091516;28;20358;-57
2022/04/25 12:33:47;;;;;;;9.17;3.13;;;15.00;99.90;;;;;;5091912;28;20267;-56
2022/04/25 12:36:21;;;;;;;11.47;3.70;;;14.90;99.90;;;;;;5091598;28;20614;-55
2022/04/25 12:38:50;;;;;;;10.87;3.40;;;14.90;99.90;;;;;;5091783;28;20247;-54
2022/04/25 12:41:32;;;;;;;12.43;3.47;;;15.00;99.90;;;;;;5091829;28;20237;-54
2022/04/25 12:44:18;;;;;;;6.83;3.17;;;15.10;99.90;;;;;;5092112;28;20177;-56
2022/04/25 12:46:46;;;;;;;12.17;3.63;;;15.30;99.90;;;;;;5091755;28;20538;-57
2022/04/25 12:49:13;;;;;;;12.87;3.10;;;15.40;99.90;;;;;;5091011;28;20321;-58
2022/04/25 12:51:45;;;;;;;10.80;3.10;;;15.40;99.90;;;;;;5092046;28;20286;-58
2022/04/25 12:54:32;;;;;;;11.07;3.10;;;15.40;99.90;;;;;;5091755;28;20262;-64
2022/04/25 12:57:15;;;;;;;4.87;2.50;;;15.40;99.90;;;;;;5091558;28;20215;-55
2022/04/25 12:59:56;;;;;;;8.70;2.70;;;15.30;99.90;;;;;;5091613;28;20280;-56
2022/04/25 13:02:33;;;;;;;18.97;3.53;;;15.30;99.90;;;;;;5091404;28;20173;-57
2022/04/25 13:05:03;;;;;;;8.63;2.93;;;15.30;99.90;;;;;;5091852;28;20249;-56
2022/04/25 13:07:42;;;;;;;11.30;3.37;;;15.50;99.90;;;;;;5091093;28;20170;-56
2022/04/25 13:10:10;;;;;;;15.57;3.20;;;15.90;99.90;;;;;;5091422;28;20357;-57
2022/04/25 13:12:41;;;;;;;9.20;3.03;;;16.50;99.90;;;;;;5091561;28;20230;-57
2022/04/25 13:15:16;;;;;;;17.30;3.60;;;17.00;99.90;;;;;;5091540;28;20177;-57
2022/04/25 13:17:42;;;;;;;18.50;4.17;;;17.20;99.90;;;;;;5089807;28;20287;-55
2022/04/25 13:20:15;;;;;;;13.90;3.37;;;17.40;99.90;;;;;;5090926;28;20705;-57
2022/04/25 13:22:42;;;;;;;12.90;2.70;;;17.40;99.90;;;;;;5091714;28;20165;-55
2022/04/25 13:25:09;;;;;;;18.83;3.83;;;17.20;99.90;;;;;;5091227;28;20173;-55
2022/04/25 13:27:36;;;;;;;17.33;3.10;;;17.00;99.90;;;;;;5091628;28;20212;-57
2022/04/25 13:30:12;;;;;;;19.03;4.03;;;17.00;99.90;;;;;;5091062;28;20346;-55
2022/04/25 13:32:38;;;;;;;6.53;2.03;;;16.90;99.90;;;;;;5093813;28;20196;-55
2022/04/25 13:35:06;;;;;;;12.43;3.03;;;16.70;99.90;;;;;;5095159;28;20252;-56
2022/04/25 13:37:32;;;;;;;17.93;3.63;;;16.60;99.90;;;;;;5095129;28;20169;-58
2022/04/25 13:39:59;;;;;;;15.10;3.03;;;16.60;99.90;;;;;;5095334;28;20181;-56
2022/04/25 13:42:25;;;;;;;11.50;3.13;;;16.60;99.90;;;;;;5094799;28;20184;-57
2022/04/25 13:44:51;;;;;;;15.87;3.27;;;16.50;99.90;;;;;;5094626;28;20189;-56
2022/04/25 13:47:17;;;;;;;12.20;2.70;;;16.40;99.90;;;;;;5094533;28;20200;-55
2022/04/25 13:49:43;;;;;;;11.90;3.47;;;16.30;99.90;;;;;;5093201;28;20201;-54
2022/04/25 13:52:10;;;;;;;10.07;2.70;;;16.20;99.90;;;;;;5093614;28;20191;-57
2022/04/25 13:54:42;;;;;;;7.57;2.67;;;16.60;99.90;;;;;;5095107;28;20268;-61